createdAt,value
2023-04-17T00:00:33.781Z,102683.34
2023-04-17T00:03:37.766Z,102686.13
2023-04-17T00:06:43.153Z,102686.13
2023-04-17T00:09:45.701Z,102684.47
2023-04-17T00:12:48.524Z,102680.59
2023-04-17T00:15:51.065Z,102684.47
2023-04-17T00:18:54.989Z,102687.25
2023-04-17T00:21:57.568Z,102687.56
2023-04-17T00:25:00.186Z,102685.09
2023-04-17T00:28:02.699Z,102687.88
2023-04-17T00:31:05.764Z,102679.53
2023-04-17T00:34:09.623Z,102680.03
2023-04-17T00:37:12.224Z,102680.38
2023-04-17T00:40:15.329Z,102690.66
2023-04-17T00:43:17.950Z,102685.94
2023-04-17T00:46:20.540Z,102686.72
2023-04-17T00:49:24.498Z,102690.13
2023-04-17T00:52:28.792Z,102685.47
2023-04-17T00:55:31.870Z,102684.66
2023-04-17T00:58:34.449Z,102686.91
2023-04-17T01:01:37.067Z,102689.22
2023-04-17T01:04:41.007Z,102681.03
2023-04-17T01:07:43.583Z,102686.97
2023-04-17T01:10:46.259Z,102684.56
2023-04-17T01:13:49.051Z,102679.66
2023-04-17T01:16:51.633Z,102693.84
2023-04-17T01:19:55.643Z,102686.94
2023-04-17T01:22:58.444Z,102688.97
2023-04-17T01:26:02.279Z,102694.81
2023-04-17T01:29:04.796Z,102692.66
2023-04-17T01:32:07.303Z,102689.34
2023-04-17T01:35:10.736Z,102691.84
2023-04-17T01:38:13.296Z,102694.41
2023-04-17T01:41:17.136Z,102684.44
2023-04-17T01:44:19.684Z,102693.88
2023-04-17T01:47:22.479Z,102695.31
2023-04-17T01:50:25.060Z,102692.00
2023-04-17T01:53:27.641Z,102698.16
2023-04-17T01:56:31.595Z,102684.84
2023-04-17T01:59:34.164Z,102699.56
2023-04-17T02:02:36.912Z,102701.28
2023-04-17T02:05:39.610Z,102696.59
2023-04-17T02:08:42.146Z,102701.94
2023-04-17T02:11:46.364Z,102695.31
2023-04-17T02:14:48.894Z,102702.00
2023-04-17T02:17:51.649Z,102699.44
2023-04-17T02:20:54.414Z,102695.75
2023-04-17T02:23:57.010Z,102698.53
2023-04-17T02:27:00.921Z,102693.53
2023-04-17T02:30:03.683Z,102689.63
2023-04-17T02:33:06.227Z,102695.19
2023-04-17T02:36:09.339Z,102687.50
2023-04-17T02:39:12.110Z,102693.00
2023-04-17T02:42:16.116Z,102689.16
2023-04-17T02:45:18.621Z,102688.09
2023-04-17T02:48:21.152Z,102685.91
2023-04-17T02:51:23.672Z,102683.13
2023-04-17T02:54:26.268Z,102685.34
2023-04-17T02:57:30.157Z,102681.25
2023-04-17T03:00:32.843Z,102691.53
2023-04-17T03:03:38.756Z,102697.66
2023-04-17T03:06:41.993Z,102688.25
2023-04-17T03:09:45.618Z,102690.22
2023-04-17T03:12:49.474Z,102683.81
2023-04-17T03:15:51.990Z,102683.00
2023-04-17T03:18:54.555Z,102690.22
2023-04-17T03:21:57.116Z,102687.13
2023-04-17T03:24:59.640Z,102681.88
2023-04-17T03:28:03.483Z,102682.16
2023-04-17T03:31:06.417Z,102681.66
2023-04-17T03:34:08.966Z,102687.19
2023-04-17T03:37:11.549Z,102691.66
2023-04-17T03:40:14.351Z,102687.25
2023-04-17T03:43:18.359Z,102700.00
2023-04-17T03:46:21.002Z,102692.81
2023-04-17T03:49:23.613Z,102701.66
2023-04-17T03:52:26.244Z,102696.09
2023-04-17T03:55:28.814Z,102690.53
2023-04-17T03:58:32.751Z,102696.09
2023-04-17T04:01:38.613Z,102696.09
2023-04-17T04:04:41.385Z,102704.13
2023-04-17T04:07:45.174Z,102697.75
2023-04-17T04:10:47.768Z,102692.22
2023-04-17T04:13:51.624Z,102695.53
2023-04-17T04:16:54.193Z,102698.81
2023-04-17T04:19:56.760Z,102694.34
2023-04-17T04:22:59.319Z,102702.63
2023-04-17T04:26:02.575Z,102695.34
2023-04-17T04:29:06.525Z,102700.31
2023-04-17T04:32:13.582Z,102700.88
2023-04-17T04:35:16.726Z,102695.31
2023-04-17T04:38:19.360Z,102700.25
2023-04-17T04:41:25.190Z,102701.94
2023-04-17T04:44:29.070Z,102715.25
2023-04-17T04:47:31.731Z,102715.25
2023-04-17T04:50:34.353Z,102715.31
2023-04-17T04:53:36.924Z,102713.72
2023-04-17T04:56:40.046Z,102705.97
2023-04-17T04:59:43.915Z,102704.03
2023-04-17T05:02:46.634Z,102714.28
2023-04-17T05:05:50.450Z,102718.22
2023-04-17T05:08:53.004Z,102722.09
2023-04-17T05:11:55.567Z,102734.88
2023-04-17T05:14:59.451Z,102732.13
2023-04-17T05:18:02.085Z,102741.59
2023-04-17T05:21:04.889Z,102744.09
2023-04-17T05:24:07.793Z,102747.16
2023-04-17T05:27:10.391Z,102741.34
2023-04-17T05:30:15.840Z,102744.66
2023-04-17T05:33:18.409Z,102749.38
2023-04-17T05:36:22.223Z,102746.88
2023-04-17T05:39:24.751Z,102743.28
2023-04-17T05:42:27.268Z,102751.59
2023-04-17T05:45:31.263Z,102750.22
2023-04-17T05:48:34.035Z,102752.69
2023-04-17T05:51:36.586Z,102749.59
2023-04-17T05:54:39.124Z,102746.25
2023-04-17T05:57:41.673Z,102742.88
2023-04-17T06:00:45.529Z,102750.09
2023-04-17T06:03:48.499Z,102754.75
2023-04-17T06:06:51.491Z,102763.34
2023-04-17T06:09:54.083Z,102760.84
2023-04-17T06:12:56.690Z,102766.41
2023-04-17T06:16:00.698Z,102756.97
2023-04-17T06:19:03.318Z,102772.78
2023-04-17T06:22:05.954Z,102766.97
2023-04-17T06:25:09.284Z,102759.16
2023-04-17T06:28:11.818Z,102770.28
2023-04-17T06:31:15.844Z,102763.00
2023-04-17T06:34:18.469Z,102766.31
2023-04-17T06:37:21.018Z,102773.50
2023-04-17T06:40:23.586Z,102776.00
2023-04-17T06:43:26.071Z,102773.78
2023-04-17T06:46:30.032Z,102782.88
2023-04-17T06:49:32.641Z,102783.94
2023-04-17T06:52:35.280Z,102787.25
2023-04-17T06:55:37.818Z,102779.47
2023-04-17T06:58:44.487Z,102781.63
2023-04-17T07:01:48.666Z,102786.06
2023-04-17T07:04:51.536Z,102789.41
2023-04-17T07:07:55.199Z,102797.72
2023-04-17T07:10:57.776Z,102802.75
2023-04-17T07:14:00.386Z,102809.97
2023-04-17T07:17:04.841Z,102805.53
2023-04-17T07:20:08.512Z,102809.41
2023-04-17T07:23:11.131Z,102811.00
2023-04-17T07:26:13.704Z,102799.31
2023-04-17T07:29:16.338Z,102806.78
2023-04-17T07:32:20.347Z,102805.66
2023-04-17T07:35:23.264Z,102810.94
2023-04-17T07:38:25.983Z,102816.47
2023-04-17T07:41:28.591Z,102818.09
2023-04-17T07:44:31.146Z,102813.63
2023-04-17T07:47:35.088Z,102816.94
2023-04-17T07:50:37.708Z,102807.25
2023-04-17T07:53:40.403Z,102815.81
2023-04-17T07:56:42.986Z,102822.50
2023-04-17T07:59:45.646Z,102813.63
2023-04-17T08:02:49.721Z,102824.16
2023-04-17T08:05:53.950Z,102813.88
2023-04-17T08:08:56.827Z,102813.88
2023-04-17T08:11:59.350Z,102818.59
2023-04-17T08:15:01.963Z,102825.25
2023-04-17T08:18:06.217Z,102815.28
2023-04-17T08:21:09.202Z,102819.19
2023-04-17T08:24:11.790Z,102819.41
2023-04-17T08:27:15.108Z,102815.81
2023-04-17T08:30:19.304Z,102814.63
2023-04-17T08:33:23.413Z,102814.56
2023-04-17T08:36:27.037Z,102810.91
2023-04-17T08:39:30.056Z,102816.13
2023-04-17T08:42:33.034Z,102816.59
2023-04-17T08:45:35.580Z,102817.03
2023-04-17T08:48:39.435Z,102822.84
2023-04-17T08:51:42.524Z,102820.81
2023-04-17T08:54:45.107Z,102827.22
2023-04-17T08:58:00.996Z,102833.59
2023-04-17T09:01:08.717Z,102832.22
2023-04-17T09:04:12.922Z,102833.34
2023-04-17T09:07:15.888Z,102831.31
2023-04-17T09:10:18.435Z,102826.84
2023-04-17T09:13:21.867Z,102836.81
2023-04-17T09:16:25.626Z,102830.88
2023-04-17T09:19:29.642Z,102835.25
2023-04-17T09:22:32.175Z,102844.34
2023-04-17T09:25:34.734Z,102843.22
2023-04-17T09:28:39.476Z,102849.28
2023-04-17T09:31:42.848Z,102840.34
2023-04-17T09:34:47.133Z,102848.91
2023-04-17T09:37:50.756Z,102845.84
2023-04-17T09:40:53.332Z,102846.09
2023-04-17T09:44:00.946Z,102847.97
2023-04-17T09:47:03.997Z,102852.41
2023-04-17T09:50:09.836Z,102853.53
2023-04-17T09:53:12.966Z,102860.75
2023-04-17T09:56:15.473Z,102858.47
2023-04-17T09:59:17.982Z,102858.94
2023-04-17T10:02:22.553Z,102856.91
2023-04-17T10:05:28.781Z,102864.28
2023-04-17T10:08:32.241Z,102862.53
2023-04-17T10:11:36.474Z,102867.34
2023-04-17T10:14:40.088Z,102863.78
2023-04-17T10:17:42.626Z,102868.44
2023-04-17T10:20:48.563Z,102864.50
2023-04-17T10:23:51.223Z,102860.38
2023-04-17T10:26:53.792Z,102854.78
2023-04-17T10:29:56.916Z,102851.13
2023-04-17T10:33:22.226Z,102852.88
2023-04-17T10:36:52.523Z,102855.50
2023-04-17T10:40:00.676Z,102866.56
2023-04-17T10:43:04.495Z,102859.66
2023-04-17T10:46:10.385Z,102857.00
2023-04-17T10:49:13.291Z,102868.19
2023-04-17T10:52:40.116Z,102849.28
2023-04-17T10:55:48.671Z,102849.59
2023-04-17T10:58:57.600Z,102849.97
2023-04-17T11:02:04.617Z,102848.22
2023-04-17T11:05:07.529Z,102848.50
2023-04-17T11:08:11.586Z,102843.91
2023-04-17T11:11:14.598Z,102846.53
2023-04-17T11:14:18.791Z,102839.13
2023-04-17T11:17:22.307Z,102846.97
2023-04-17T11:20:25.473Z,102836.97
2023-04-17T11:23:34.489Z,102836.03
2023-04-17T11:26:43.149Z,102842.41
2023-04-17T11:29:45.777Z,102841.19
2023-04-17T11:32:48.318Z,102844.13
2023-04-17T11:35:52.296Z,102847.44
2023-04-17T11:38:57.850Z,102844.09
2023-04-17T11:42:00.569Z,102844.66
2023-04-17T11:45:07.870Z,102832.16
2023-04-17T11:48:11.450Z,102833.66
2023-04-17T11:51:14.037Z,102829.88
2023-04-17T11:54:25.840Z,102829.94
2023-04-17T11:57:28.439Z,102830.31
2023-04-17T12:00:31.708Z,102826.69
2023-04-17T12:03:35.522Z,102827.84
2023-04-17T12:06:38.597Z,102831.97
2023-04-17T12:09:42.504Z,102822.41
2023-04-17T12:12:45.507Z,102819.91
2023-04-17T12:15:48.140Z,102820.09
2023-04-17T12:18:50.760Z,102817.63
2023-04-17T12:21:54.312Z,102828.81
2023-04-17T12:24:58.283Z,102830.31
2023-04-17T12:28:00.833Z,102819.88
2023-04-17T12:31:03.962Z,102824.66
2023-04-17T12:34:06.584Z,102822.81
2023-04-17T12:37:09.183Z,102834.53
2023-04-17T12:40:13.217Z,102819.50
2023-04-17T12:43:16.031Z,102833.19
2023-04-17T12:46:18.614Z,102831.91
2023-04-17T12:49:23.468Z,102842.44
2023-04-17T12:52:26.108Z,102840.13
2023-04-17T12:55:29.972Z,102829.56
2023-04-17T12:58:32.894Z,102843.13
2023-04-17T13:01:35.539Z,102839.97
2023-04-17T13:04:38.254Z,102845.75
2023-04-17T13:07:41.093Z,102834.53
2023-04-17T13:10:45.044Z,102835.19
2023-04-17T13:13:47.600Z,102829.44
2023-04-17T13:16:50.875Z,102833.53
2023-04-17T13:19:53.697Z,102824.97
2023-04-17T13:22:58.322Z,102823.31
2023-04-17T13:26:02.772Z,102823.97
2023-04-17T13:29:05.297Z,102830.25
2023-04-17T13:32:07.892Z,102818.41
2023-04-17T13:35:13.085Z,102825.03
2023-04-17T13:38:15.681Z,102792.69
2023-04-17T13:41:19.557Z,102812.47
2023-04-17T13:44:22.149Z,102817.13
2023-04-17T13:47:24.756Z,102811.50
2023-04-17T13:50:27.438Z,102809.34
2023-04-17T13:53:30.034Z,102799.97
2023-04-17T13:56:33.953Z,102792.06
2023-04-17T13:59:36.554Z,102792.72
2023-04-17T14:02:39.215Z,102799.63
2023-04-17T14:05:41.862Z,102792.84
2023-04-17T14:08:45.100Z,102782.97
2023-04-17T14:11:48.961Z,102786.41
2023-04-17T14:14:51.522Z,102788.06
2023-04-17T14:17:54.151Z,102775.53
2023-04-17T14:20:56.857Z,102778.13
2023-04-17T14:23:59.372Z,102782.41
2023-04-17T14:27:03.650Z,102775.97
2023-04-17T14:30:07.382Z,102770.81
2023-04-17T14:33:09.917Z,102773.47
2023-04-17T14:36:12.441Z,102768.00
2023-04-17T14:39:15.210Z,102765.34
2023-04-17T14:42:19.270Z,102754.78
2023-04-17T14:45:21.776Z,102750.28
2023-04-17T14:48:24.596Z,102754.72
2023-04-17T14:51:28.360Z,102739.84
2023-04-17T14:54:31.027Z,102751.06
2023-04-17T14:57:34.937Z,102752.91
2023-04-17T15:00:38.270Z,102751.25
2023-04-17T15:03:41.694Z,102745.66
2023-04-17T15:06:45.776Z,102739.34
2023-04-17T15:09:48.292Z,102737.16
2023-04-17T15:12:52.222Z,102735.66
2023-04-17T15:15:55.121Z,102737.31
2023-04-17T15:18:57.681Z,102735.66
2023-04-17T15:22:00.223Z,102722.59
2023-04-17T15:25:02.766Z,102724.25
2023-04-17T15:28:06.668Z,102731.00
2023-04-17T15:31:09.227Z,102729.84
2023-04-17T15:34:13.416Z,102729.84
2023-04-17T15:37:16.151Z,102725.06
2023-04-17T15:40:18.678Z,102723.22
2023-04-17T15:43:22.668Z,102725.84
2023-04-17T15:46:25.206Z,102716.41
2023-04-17T15:49:28.392Z,102718.72
2023-04-17T15:52:30.936Z,102727.63
2023-04-17T15:55:36.198Z,102737.00
2023-04-17T15:58:40.069Z,102728.56
2023-04-17T16:01:42.638Z,102729.72
2023-04-17T16:04:45.389Z,102734.19
2023-04-17T16:07:48.031Z,102730.88
2023-04-17T16:10:51.128Z,102723.66
2023-04-17T16:13:55.050Z,102729.13
2023-04-17T16:16:59.833Z,102727.47
2023-04-17T16:20:03.574Z,102730.63
2023-04-17T16:23:06.133Z,102725.75
2023-04-17T16:26:08.649Z,102726.03
2023-04-17T16:29:12.691Z,102735.09
2023-04-17T16:32:15.460Z,102735.41
2023-04-17T16:35:18.208Z,102734.47
2023-04-17T16:38:20.705Z,102728.56
2023-04-17T16:41:23.319Z,102728.16
2023-04-17T16:44:27.838Z,102726.50
2023-04-17T16:47:30.438Z,102727.34
2023-04-17T16:50:33.073Z,102721.72
2023-04-17T16:53:35.587Z,102730.13
2023-04-17T16:56:38.180Z,102727.34
2023-04-17T16:59:42.062Z,102720.06
2023-04-17T17:02:44.699Z,102724.88
2023-04-17T17:05:47.357Z,102723.22
2023-04-17T17:08:49.939Z,102726.38
2023-04-17T17:11:52.520Z,102724.72
2023-04-17T17:14:56.453Z,102737.31
2023-04-17T17:17:58.997Z,102730.59
2023-04-17T17:21:02.015Z,102726.13
2023-04-17T17:24:05.003Z,102732.78
2023-04-17T17:27:07.559Z,102741.38
2023-04-17T17:30:12.730Z,102734.78
2023-04-17T17:33:16.951Z,102739.44
2023-04-17T17:36:19.524Z,102748.06
2023-04-17T17:39:22.392Z,102743.91
2023-04-17T17:42:25.110Z,102742.09
2023-04-17T17:45:28.971Z,102744.41
2023-04-17T17:48:31.531Z,102751.88
2023-04-17T17:51:34.072Z,102753.22
2023-04-17T17:54:37.301Z,102755.22
2023-04-17T17:57:48.810Z,102760.88
2023-04-17T18:00:53.688Z,102751.66
2023-04-17T18:03:56.432Z,102752.84
2023-04-17T18:06:59.168Z,102746.91
2023-04-17T18:10:01.700Z,102752.19
2023-04-17T18:13:04.308Z,102759.63
2023-04-17T18:16:08.789Z,102760.13
2023-04-17T18:19:11.322Z,102759.47
2023-04-17T18:22:13.888Z,102759.63
2023-04-17T18:25:16.626Z,102760.94
2023-04-17T18:28:19.226Z,102762.78
2023-04-17T18:31:25.123Z,102762.13
2023-04-17T18:34:27.760Z,102769.84
2023-04-17T18:37:30.291Z,102771.16
2023-04-17T18:40:32.825Z,102775.72
2023-04-17T18:43:35.457Z,102771.44
2023-04-17T18:46:39.394Z,102777.06
2023-04-17T18:49:41.920Z,102764.69
2023-04-17T18:52:48.740Z,102773.25
2023-04-17T18:55:53.560Z,102781.78
2023-04-17T18:58:56.100Z,102785.56
2023-04-17T19:02:00.191Z,102793.28
2023-04-17T19:05:02.806Z,102787.31
2023-04-17T19:08:05.568Z,102796.53
2023-04-17T19:11:08.139Z,102788.94
2023-04-17T19:14:10.847Z,102796.63
2023-04-17T19:17:15.883Z,102798.75
2023-04-17T19:20:18.511Z,102789.50
2023-04-17T19:23:21.071Z,102796.88
2023-04-17T19:26:23.559Z,102797.34
2023-04-17T19:29:26.261Z,102796.66
2023-04-17T19:32:31.696Z,102798.41
2023-04-17T19:35:34.483Z,102797.94
2023-04-17T19:38:37.068Z,102800.88
2023-04-17T19:41:39.648Z,102810.19
2023-04-17T19:44:42.178Z,102802.75
2023-04-17T19:47:46.051Z,102800.09
2023-04-17T19:50:48.671Z,102799.06
2023-04-17T19:53:53.150Z,102803.63
2023-04-17T19:56:55.723Z,102803.13
2023-04-17T19:59:58.312Z,102808.84
2023-04-17T20:03:02.446Z,102803.91
2023-04-17T20:06:05.271Z,102798.94
2023-04-17T20:09:07.971Z,102809.09
2023-04-17T20:12:10.549Z,102813.66
2023-04-17T20:15:13.129Z,102811.50
2023-04-17T20:18:17.312Z,102801.28
2023-04-17T20:21:19.882Z,102809.47
2023-04-17T20:24:22.476Z,102801.72
2023-04-17T20:27:26.456Z,102804.66
2023-04-17T20:30:29.254Z,102809.19
2023-04-17T20:33:33.209Z,102809.84
2023-04-17T20:36:35.774Z,102813.53
2023-04-17T20:39:39.230Z,102815.63
2023-04-17T20:42:42.250Z,102812.97
2023-04-17T20:45:44.909Z,102808.03
2023-04-17T20:48:50.198Z,102814.53
2023-04-17T20:51:52.811Z,102813.81
2023-04-17T20:54:55.686Z,102809.47
2023-04-17T20:57:58.241Z,102805.69
2023-04-17T21:01:01.823Z,102800.22
2023-04-17T21:04:06.028Z,102800.28
2023-04-17T21:07:08.659Z,102799.28
2023-04-17T21:10:11.253Z,102792.38
2023-04-17T21:13:13.816Z,102793.94
2023-04-17T21:16:16.402Z,102797.97
2023-04-17T21:19:22.506Z,102805.59
2023-04-17T21:22:25.069Z,102794.19
2023-04-17T21:25:27.667Z,102807.41
2023-04-17T21:28:30.299Z,102800.00
2023-04-17T21:31:32.904Z,102803.91
2023-04-17T21:34:36.839Z,102798.13
2023-04-17T21:37:39.394Z,102800.41
2023-04-17T21:40:51.122Z,102799.38
2023-04-17T21:43:54.651Z,102804.72
2023-04-17T21:46:57.171Z,102797.78
2023-04-17T21:50:01.096Z,102792.53
2023-04-17T21:53:03.610Z,102798.72
2023-04-17T21:56:07.115Z,102798.72
2023-04-17T21:59:10.060Z,102793.16
2023-04-17T22:02:12.682Z,102796.56
2023-04-17T22:05:16.631Z,102796.03
2023-04-17T22:08:19.184Z,102802.25
2023-04-17T22:11:21.770Z,102802.84
2023-04-17T22:14:24.280Z,102800.66
2023-04-17T22:17:27.005Z,102801.81
2023-04-17T22:20:30.940Z,102802.41
2023-04-17T22:23:52.075Z,102800.75
2023-04-17T22:27:30.852Z,102801.88
2023-04-17T22:31:09.586Z,102801.97
2023-04-17T22:34:30.532Z,102800.09
2023-04-17T22:37:51.936Z,102797.13
2023-04-17T22:41:12.136Z,102791.84
2023-04-17T22:44:51.007Z,102788.81
2023-04-17T22:48:10.850Z,102790.59
2023-04-17T22:51:49.794Z,102781.25
2023-04-17T22:55:10.923Z,102783.00
2023-04-17T22:58:49.715Z,102782.28
2023-04-17T23:02:29.800Z,102784.31
2023-04-17T23:06:08.460Z,102783.28
2023-04-17T23:09:11.168Z,102779.72
2023-04-17T23:12:15.105Z,102781.75
2023-04-17T23:15:17.597Z,102779.31
2023-04-17T23:18:20.147Z,102783.81
2023-04-17T23:21:22.761Z,102779.97
2023-04-17T23:24:25.767Z,102776.16
2023-04-17T23:27:29.695Z,102776.44
2023-04-17T23:30:32.257Z,102775.91
2023-04-17T23:33:34.819Z,102776.75
2023-04-17T23:36:37.433Z,102768.19
2023-04-17T23:39:40.466Z,102779.31
2023-04-17T23:42:44.560Z,102780.44
2023-04-17T23:45:47.137Z,102777.94
2023-04-17T23:48:49.678Z,102773.81
2023-04-17T23:51:52.228Z,102778.03
2023-04-17T23:54:54.813Z,102772.84
2023-04-17T23:57:58.782Z,102771.47
